KCNY

Canyonlands Field Airport

Moab, Utah, USA
METAR KCNY 180253Z AUTO 00000KT 10SM CLR M03/M13 A3011 RMK AO2 SLP239 T10281133 53024
Observed Flight Rules
Dec-18 @ 02:53 UTC (26 minutes ago) Visual Flight Rules
Wind Visibility Clouds
Calm 10 miles
  • Clear skies
Temperatures Readings
Current -3°C / 27°F
Dewpoint -13°C / 9°F
Humidity 46%
Altimeter 30.11" Hg
Pressure 1023.9 hPa
Elevation 1390
METAR KCNY 180253Z AUTO 00000KT 10SM CLR M03/M13 A3011 RMK AO2 SLP239 T10281133 53024
Observed Flight Rules
Dec-18 @ 02:53 UTC
(26 minutes ago)
VFR
Wind Visibility
Calm 10 miles
Clouds
  • Clear skies
Temperature Dewpoint
-3°C / 27°F -13°C / 9°F
Humidity Altimeter Pressure
46% 30.11" Hg 1023.9 hPa